sensor_id;sensor_type;location;lat;lon;timestamp;pressure;altitude;pressure_sealevel;temperature;humidity
28456;BME280;15682;56.742;38.866;2023-04-20T00:00:52;100380.0;;;4.0;78.3
28456;BME280;15682;56.742;38.866;2023-04-20T00:02:52;100380.0;;;4.0;78.9
28456;BME280;15682;56.742;38.866;2023-04-20T00:04:52;100380.0;;;4.0;79.7
28456;BME280;15682;56.742;38.866;2023-04-20T00:06:52;100380.0;;;3.9;79.2
28456;BME280;15682;56.742;38.866;2023-04-20T00:08:52;100380.0;;;3.8;78.5
28456;BME280;15682;56.742;38.866;2023-04-20T00:10:52;100380.0;;;3.8;80.1
28456;BME280;15682;56.742;38.866;2023-04-20T00:12:52;100380.0;;;4.0;80.2
28456;BME280;15682;56.742;38.866;2023-04-20T00:14:52;100380.0;;;4.0;79.3
28456;BME280;15682;56.742;38.866;2023-04-20T00:16:51;100380.0;;;3.9;77.7
28456;BME280;15682;56.742;38.866;2023-04-20T00:18:51;100380.0;;;3.9;77.7
28456;BME280;15682;56.742;38.866;2023-04-20T00:20:52;100380.0;;;3.9;77.7
28456;BME280;15682;56.742;38.866;2023-04-20T00:22:51;100370.0;;;3.9;79.0
28456;BME280;15682;56.742;38.866;2023-04-20T00:24:51;100370.0;;;3.9;79.5
28456;BME280;15682;56.742;38.866;2023-04-20T00:26:51;100370.0;;;3.9;78.1
28456;BME280;15682;56.742;38.866;2023-04-20T00:28:51;100370.0;;;3.9;78.9
28456;BME280;15682;56.742;38.866;2023-04-20T00:30:51;100370.0;;;3.9;78.3
28456;BME280;15682;56.742;38.866;2023-04-20T00:32:51;100370.0;;;3.9;78.3
28456;BME280;15682;56.742;38.866;2023-04-20T00:34:51;100370.0;;;3.7;78.5
28456;BME280;15682;56.742;38.866;2023-04-20T00:36:51;100370.0;;;3.7;79.2
28456;BME280;15682;56.742;38.866;2023-04-20T00:38:51;100370.0;;;3.7;78.5
28456;BME280;15682;56.742;38.866;2023-04-20T00:40:51;100370.0;;;3.7;78.8
28456;BME280;15682;56.742;38.866;2023-04-20T00:42:51;100370.0;;;3.7;77.9
28456;BME280;15682;56.742;38.866;2023-04-20T00:44:51;100370.0;;;3.7;78.0
28456;BME280;15682;56.742;38.866;2023-04-20T00:46:51;100370.0;;;3.6;78.8
28456;BME280;15682;56.742;38.866;2023-04-20T00:48:52;100370.0;;;3.6;78.8
28456;BME280;15682;56.742;38.866;2023-04-20T00:50:51;100370.0;;;3.6;78.9
28456;BME280;15682;56.742;38.866;2023-04-20T00:52:51;100370.0;;;3.6;78.9
28456;BME280;15682;56.742;38.866;2023-04-20T00:54:51;100370.0;;;3.6;79.5
28456;BME280;15682;56.742;38.866;2023-04-20T00:56:53;100370.0;;;3.7;78.1
28456;BME280;15682;56.742;38.866;2023-04-20T00:58:51;100370.0;;;3.7;78.1
28456;BME280;15682;56.742;38.866;2023-04-20T01:00:51;100370.0;;;3.4;78.8
28456;BME280;15682;56.742;38.866;2023-04-20T01:02:51;100370.0;;;3.3;78.8
28456;BME280;15682;56.742;38.866;2023-04-20T01:04:51;100370.0;;;3.5;80.6
28456;BME280;15682;56.742;38.866;2023-04-20T01:06:51;100360.0;;;3.3;79.3
28456;BME280;15682;56.742;38.866;2023-04-20T01:08:51;100360.0;;;3.3;80.5
28456;BME280;15682;56.742;38.866;2023-04-20T01:10:51;100360.0;;;3.5;80.9
28456;BME280;15682;56.742;38.866;2023-04-20T01:12:51;100360.0;;;3.3;78.5
28456;BME280;15682;56.742;38.866;2023-04-20T01:14:51;100360.0;;;3.1;78.6
28456;BME280;15682;56.742;38.866;2023-04-20T01:16:51;100360.0;;;3.1;78.6
28456;BME280;15682;56.742;38.866;2023-04-20T01:18:51;100360.0;;;3.1;78.6
28456;BME280;15682;56.742;38.866;2023-04-20T01:20:51;100360.0;;;3.0;79.4
28456;BME280;15682;56.742;38.866;2023-04-20T01:22:51;100360.0;;;3.1;79.4
28456;BME280;15682;56.742;38.866;2023-04-20T01:24:51;100360.0;;;3.1;79.2
28456;BME280;15682;56.742;38.866;2023-04-20T01:26:51;100350.0;;;3.2;79.1
28456;BME280;15682;56.742;38.866;2023-04-20T01:28:51;100350.0;;;3.0;79.3
28456;BME280;15682;56.742;38.866;2023-04-20T01:30:51;100350.0;;;3.3;82.3
28456;BME280;15682;56.742;38.866;2023-04-20T01:32:51;100350.0;;;3.3;80.1
28456;BME280;15682;56.742;38.866;2023-04-20T01:34:51;100340.0;;;3.1;78.6
28456;BME280;15682;56.742;38.866;2023-04-20T01:36:51;100340.0;;;2.9;78.5
28456;BME280;15682;56.742;38.866;2023-04-20T01:38:51;100340.0;;;2.9;79.8
28456;BME280;15682;56.742;38.866;2023-04-20T01:40:51;100340.0;;;2.9;79.8
28456;BME280;15682;56.742;38.866;2023-04-20T01:42:51;100340.0;;;3.1;79.5
28456;BME280;15682;56.742;38.866;2023-04-20T01:44:51;100340.0;;;3.1;78.8
28456;BME280;15682;56.742;38.866;2023-04-20T01:46:51;100340.0;;;3.1;79.8
28456;BME280;15682;56.742;38.866;2023-04-20T01:48:51;100330.0;;;3.1;79.8
28456;BME280;15682;56.742;38.866;2023-04-20T01:50:51;100330.0;;;3.1;79.7
28456;BME280;15682;56.742;38.866;2023-04-20T01:52:50;100330.0;;;3.0;79.7
28456;BME280;15682;56.742;38.866;2023-04-20T01:54:51;100330.0;;;3.0;79.5
28456;BME280;15682;56.742;38.866;2023-04-20T01:56:51;100330.0;;;2.9;79.5
28456;BME280;15682;56.742;38.866;2023-04-20T01:58:50;100330.0;;;2.9;80.5
28456;BME280;15682;56.742;38.866;2023-04-20T02:00:50;100320.0;;;2.9;79.9
28456;BME280;15682;56.742;38.866;2023-04-20T02:02:50;100330.0;;;2.9;79.7
28456;BME280;15682;56.742;38.866;2023-04-20T02:04:50;100320.0;;;2.9;79.9
28456;BME280;15682;56.742;38.866;2023-04-20T02:06:50;100310.0;;;2.9;78.9
28456;BME280;15682;56.742;38.866;2023-04-20T02:08:50;100310.0;;;2.8;78.9
28456;BME280;15682;56.742;38.866;2023-04-20T02:10:50;100310.0;;;3.1;80.7
28456;BME280;15682;56.742;38.866;2023-04-20T02:12:50;100310.0;;;2.9;79.2
28456;BME280;15682;56.742;38.866;2023-04-20T02:14:50;100310.0;;;2.8;79.1
28456;BME280;15682;56.742;38.866;2023-04-20T02:16:50;100310.0;;;2.8;79.8
28456;BME280;15682;56.742;38.866;2023-04-20T02:18:50;100310.0;;;3.1;81.2
28456;BME280;15682;56.742;38.866;2023-04-20T02:20:50;100310.0;;;3.2;81.2
28456;BME280;15682;56.742;38.866;2023-04-20T02:22:50;100310.0;;;3.1;80.6
28456;BME280;15682;56.742;38.866;2023-04-20T02:24:50;100310.0;;;3.1;80.5
28456;BME280;15682;56.742;38.866;2023-04-20T02:26:50;100310.0;;;3.0;80.5
28456;BME280;15682;56.742;38.866;2023-04-20T02:28:50;100310.0;;;3.0;80.5
28456;BME280;15682;56.742;38.866;2023-04-20T02:30:50;100310.0;;;3.0;81.3
28456;BME280;15682;56.742;38.866;2023-04-20T02:32:50;100310.0;;;3.1;79.4
28456;BME280;15682;56.742;38.866;2023-04-20T02:34:50;100310.0;;;3.2;80.4
28456;BME280;15682;56.742;38.866;2023-04-20T02:36:50;100310.0;;;2.9;79.5
28456;BME280;15682;56.742;38.866;2023-04-20T02:38:50;100310.0;;;3.1;81.6
28456;BME280;15682;56.742;38.866;2023-04-20T02:40:50;100310.0;;;3.1;80.5
28456;BME280;15682;56.742;38.866;2023-04-20T02:42:50;100310.0;;;3.1;80.2
28456;BME280;15682;56.742;38.866;2023-04-20T02:44:50;100310.0;;;3.1;80.4
28456;BME280;15682;56.742;38.866;2023-04-20T02:46:50;100310.0;;;3.1;80.4
28456;BME280;15682;56.742;38.866;2023-04-20T02:48:50;100310.0;;;3.2;79.5
28456;BME280;15682;56.742;38.866;2023-04-20T02:50:49;100310.0;;;3.3;79.0
28456;BME280;15682;56.742;38.866;2023-04-20T02:52:49;100310.0;;;3.3;79.0
28456;BME280;15682;56.742;38.866;2023-04-20T02:54:49;100310.0;;;3.3;78.8
28456;BME280;15682;56.742;38.866;2023-04-20T02:56:49;100310.0;;;3.3;79.9
28456;BME280;15682;56.742;38.866;2023-04-20T02:58:49;100310.0;;;3.3;79.9
28456;BME280;15682;56.742;38.866;2023-04-20T03:00:49;100310.0;;;3.5;79.3
28456;BME280;15682;56.742;38.866;2023-04-20T03:02:49;100310.0;;;3.5;78.6
28456;BME280;15682;56.742;38.866;2023-04-20T03:04:49;100310.0;;;3.5;78.6
28456;BME280;15682;56.742;38.866;2023-04-20T03:06:49;100310.0;;;3.7;78.5
28456;BME280;15682;56.742;38.866;2023-04-20T03:08:49;100310.0;;;3.7;78.5
28456;BME280;15682;56.742;38.866;2023-04-20T03:10:49;100310.0;;;3.8;78.5
28456;BME280;15682;56.742;38.866;2023-04-20T03:12:49;100310.0;;;3.8;78.5
28456;BME280;15682;56.742;38.866;2023-04-20T03:14:49;100310.0;;;4.0;78.7
28456;BME280;15682;56.742;38.866;2023-04-20T03:16:49;100290.0;;;4.3;77.7
28456;BME280;15682;56.742;38.866;2023-04-20T03:18:49;100290.0;;;4.6;75.5
28456;BME280;15682;56.742;38.866;2023-04-20T03:20:49;100290.0;;;4.6;73.4
28456;BME280;15682;56.742;38.866;2023-04-20T03:22:49;100290.0;;;4.7;70.9
28456;BME280;15682;56.742;38.866;2023-04-20T03:24:49;100290.0;;;4.8;70.8
28456;BME280;15682;56.742;38.866;2023-04-20T03:26:49;100290.0;;;4.8;70.8
28456;BME280;15682;56.742;38.866;2023-04-20T03:28:50;100290.0;;;4.8;70.8
28456;BME280;15682;56.742;38.866;2023-04-20T03:30:49;100290.0;;;5.0;70.8
28456;BME280;15682;56.742;38.866;2023-04-20T03:32:50;100290.0;;;5.0;70.0
28456;BME280;15682;56.742;38.866;2023-04-20T03:34:50;100290.0;;;5.1;69.5
28456;BME280;15682;56.742;38.866;2023-04-20T03:36:50;100290.0;;;5.1;68.9
28456;BME280;15682;56.742;38.866;2023-04-20T03:38:50;100290.0;;;5.2;68.8
28456;BME280;15682;56.742;38.866;2023-04-20T03:40:50;100290.0;;;5.4;69.4
28456;BME280;15682;56.742;38.866;2023-04-20T03:42:51;100290.0;;;5.6;69.4
28456;BME280;15682;56.742;38.866;2023-04-20T03:44:51;100290.0;;;5.6;69.5
28456;BME280;15682;56.742;38.866;2023-04-20T03:46:51;100290.0;;;5.9;69.8
28456;BME280;15682;56.742;38.866;2023-04-20T03:48:51;100290.0;;;5.9;69.8
28456;BME280;15682;56.742;38.866;2023-04-20T03:50:51;100290.0;;;6.0;70.8
28456;BME280;15682;56.742;38.866;2023-04-20T03:52:51;100290.0;;;6.1;71.6
28456;BME280;15682;56.742;38.866;2023-04-20T03:54:51;100290.0;;;6.3;72.1
28456;BME280;15682;56.742;38.866;2023-04-20T03:56:51;100290.0;;;6.2;73.8
28456;BME280;15682;56.742;38.866;2023-04-20T03:58:51;100290.0;;;6.2;72.3
28456;BME280;15682;56.742;38.866;2023-04-20T04:00:52;100290.0;;;6.2;72.3
28456;BME280;15682;56.742;38.866;2023-04-20T04:02:52;100290.0;;;6.3;73.0
28456;BME280;15682;56.742;38.866;2023-04-20T04:04:52;100280.0;;;6.3;72.4
28456;BME280;15682;56.742;38.866;2023-04-20T04:06:52;100280.0;;;6.6;72.4
28456;BME280;15682;56.742;38.866;2023-04-20T04:08:52;100280.0;;;6.9;71.2
28456;BME280;15682;56.742;38.866;2023-04-20T04:10:52;100280.0;;;6.9;71.9
28456;BME280;15682;56.742;38.866;2023-04-20T04:12:53;100280.0;;;6.9;71.9
28456;BME280;15682;56.742;38.866;2023-04-20T04:14:52;100280.0;;;7.0;71.7
28456;BME280;15682;56.742;38.866;2023-04-20T04:16:52;100280.0;;;7.3;70.8
28456;BME280;15682;56.742;38.866;2023-04-20T04:18:52;100280.0;;;7.5;69.0
28456;BME280;15682;56.742;38.866;2023-04-20T04:20:52;100270.0;;;7.6;70.9
28456;BME280;15682;56.742;38.866;2023-04-20T04:22:53;100270.0;;;7.7;70.6
28456;BME280;15682;56.742;38.866;2023-04-20T04:24:53;100270.0;;;7.7;71.4
28456;BME280;15682;56.742;38.866;2023-04-20T04:26:53;100270.0;;;7.7;72.0
28456;BME280;15682;56.742;38.866;2023-04-20T04:28:53;100270.0;;;7.9;72.0
28456;BME280;15682;56.742;38.866;2023-04-20T04:30:53;100270.0;;;7.9;72.0
28456;BME280;15682;56.742;38.866;2023-04-20T04:32:53;100260.0;;;8.0;71.1
28456;BME280;15682;56.742;38.866;2023-04-20T04:34:54;100260.0;;;8.0;70.7
28456;BME280;15682;56.742;38.866;2023-04-20T04:36:54;100260.0;;;8.1;68.6
28456;BME280;15682;56.742;38.866;2023-04-20T04:38:54;100260.0;;;8.1;68.8
28456;BME280;15682;56.742;38.866;2023-04-20T04:40:54;100260.0;;;8.1;69.9
28456;BME280;15682;56.742;38.866;2023-04-20T04:42:54;100260.0;;;8.2;70.1
28456;BME280;15682;56.742;38.866;2023-04-20T04:44:55;100260.0;;;8.2;70.0
28456;BME280;15682;56.742;38.866;2023-04-20T04:46:54;100260.0;;;8.2;68.5
28456;BME280;15682;56.742;38.866;2023-04-20T04:48:55;100260.0;;;8.3;70.0
28456;BME280;15682;56.742;38.866;2023-04-20T04:50:55;100260.0;;;8.5;68.9
28456;BME280;15682;56.742;38.866;2023-04-20T04:52:55;100260.0;;;8.6;69.0
28456;BME280;15682;56.742;38.866;2023-04-20T04:54:55;100260.0;;;8.6;67.7
28456;BME280;15682;56.742;38.866;2023-04-20T04:56:55;100260.0;;;8.6;68.9
28456;BME280;15682;56.742;38.866;2023-04-20T04:58:56;100260.0;;;8.6;69.5
28456;BME280;15682;56.742;38.866;2023-04-20T05:00:56;100260.0;;;8.6;69.1
28456;BME280;15682;56.742;38.866;2023-04-20T05:02:56;100260.0;;;8.6;69.7
28456;BME280;15682;56.742;38.866;2023-04-20T05:04:56;100260.0;;;8.6;70.3
28456;BME280;15682;56.742;38.866;2023-04-20T05:06:56;100260.0;;;8.6;70.5
28456;BME280;15682;56.742;38.866;2023-04-20T05:08:57;100260.0;;;8.6;69.9
28456;BME280;15682;56.742;38.866;2023-04-20T05:10:57;100260.0;;;8.7;69.9
28456;BME280;15682;56.742;38.866;2023-04-20T05:12:57;100250.0;;;8.9;69.3
28456;BME280;15682;56.742;38.866;2023-04-20T05:14:57;100250.0;;;8.9;69.3
28456;BME280;15682;56.742;38.866;2023-04-20T05:16:58;100250.0;;;9.0;69.3
28456;BME280;15682;56.742;38.866;2023-04-20T05:18:58;100250.0;;;9.0;68.8
28456;BME280;15682;56.742;38.866;2023-04-20T05:20:59;100250.0;;;9.3;67.3
28456;BME280;15682;56.742;38.866;2023-04-20T05:22:59;100250.0;;;9.5;66.2
28456;BME280;15682;56.742;38.866;2023-04-20T05:24:59;100250.0;;;9.7;66.2
28456;BME280;15682;56.742;38.866;2023-04-20T05:27:00;100250.0;;;9.8;65.7
28456;BME280;15682;56.742;38.866;2023-04-20T05:29:00;100240.0;;;9.8;65.7
28456;BME280;15682;56.742;38.866;2023-04-20T05:31:00;100240.0;;;9.9;64.5
28456;BME280;15682;56.742;38.866;2023-04-20T05:33:01;100240.0;;;9.9;64.5
28456;BME280;15682;56.742;38.866;2023-04-20T05:35:01;100240.0;;;9.9;63.5
28456;BME280;15682;56.742;38.866;2023-04-20T05:37:03;100240.0;;;10.1;61.8
28456;BME280;15682;56.742;38.866;2023-04-20T05:39:02;100240.0;;;10.1;60.5
28456;BME280;15682;56.742;38.866;2023-04-20T05:41:02;100240.0;;;10.3;59.6
28456;BME280;15682;56.742;38.866;2023-04-20T05:43:03;100240.0;;;10.5;59.0
28456;BME280;15682;56.742;38.866;2023-04-20T05:45:04;100240.0;;;10.6;58.1
28456;BME280;15682;56.742;38.866;2023-04-20T05:47:04;100240.0;;;10.7;56.2
28456;BME280;15682;56.742;38.866;2023-04-20T05:49:05;100240.0;;;10.7;56.8
28456;BME280;15682;56.742;38.866;2023-04-20T05:51:05;100240.0;;;10.7;56.8
28456;BME280;15682;56.742;38.866;2023-04-20T05:53:05;100240.0;;;10.6;57.9
28456;BME280;15682;56.742;38.866;2023-04-20T05:55:07;100240.0;;;10.4;58.8
28456;BME280;15682;56.742;38.866;2023-04-20T05:57:06;100240.0;;;10.5;58.8
28456;BME280;15682;56.742;38.866;2023-04-20T05:59:07;100240.0;;;10.5;58.8
28456;BME280;15682;56.742;38.866;2023-04-20T06:01:07;100240.0;;;10.5;57.8
28456;BME280;15682;56.742;38.866;2023-04-20T06:03:07;100240.0;;;10.7;57.8
28456;BME280;15682;56.742;38.866;2023-04-20T06:05:09;100240.0;;;10.7;56.0
28456;BME280;15682;56.742;38.866;2023-04-20T06:07:08;100240.0;;;10.7;56.8
28456;BME280;15682;56.742;38.866;2023-04-20T06:09:09;100240.0;;;11.0;55.4
28456;BME280;15682;56.742;38.866;2023-04-20T06:11:10;100240.0;;;11.2;55.4
28456;BME280;15682;56.742;38.866;2023-04-20T06:13:10;100240.0;;;11.4;54.8
28456;BME280;15682;56.742;38.866;2023-04-20T06:15:10;100240.0;;;11.7;50.6
28456;BME280;15682;56.742;38.866;2023-04-20T06:17:11;100240.0;;;12.1;48.6
28456;BME280;15682;56.742;38.866;2023-04-20T06:19:11;100240.0;;;12.2;46.6
28456;BME280;15682;56.742;38.866;2023-04-20T06:21:11;100240.0;;;12.6;45.2
28456;BME280;15682;56.742;38.866;2023-04-20T06:23:12;100240.0;;;12.6;44.8
28456;BME280;15682;56.742;38.866;2023-04-20T06:25:13;100240.0;;;12.7;45.7
28456;BME280;15682;56.742;38.866;2023-04-20T06:27:13;100240.0;;;12.9;44.1
28456;BME280;15682;56.742;38.866;2023-04-20T06:29:13;100230.0;;;12.7;44.1
28456;BME280;15682;56.742;38.866;2023-04-20T06:31:14;100230.0;;;12.9;43.4
28456;BME280;15682;56.742;38.866;2023-04-20T06:33:14;100230.0;;;13.0;42.9
28456;BME280;15682;56.742;38.866;2023-04-20T06:35:15;100230.0;;;13.3;42.6
28456;BME280;15682;56.742;38.866;2023-04-20T06:37:15;100230.0;;;13.6;42.0
28456;BME280;15682;56.742;38.866;2023-04-20T06:39:16;100230.0;;;13.7;44.9
28456;BME280;15682;56.742;38.866;2023-04-20T06:41:16;100230.0;;;13.5;45.6
28456;BME280;15682;56.742;38.866;2023-04-20T06:43:17;100230.0;;;13.4;45.8
28456;BME280;15682;56.742;38.866;2023-04-20T06:45:17;100230.0;;;13.6;45.8
28456;BME280;15682;56.742;38.866;2023-04-20T06:47:18;100230.0;;;13.8;45.2
28456;BME280;15682;56.742;38.866;2023-04-20T06:49:18;100230.0;;;13.8;45.2
28456;BME280;15682;56.742;38.866;2023-04-20T06:51:19;100220.0;;;13.8;45.2
28456;BME280;15682;56.742;38.866;2023-04-20T06:53:19;100220.0;;;13.9;43.2
28456;BME280;15682;56.742;38.866;2023-04-20T06:55:20;100220.0;;;13.9;41.4
28456;BME280;15682;56.742;38.866;2023-04-20T06:57:21;100220.0;;;13.9;41.6
28456;BME280;15682;56.742;38.866;2023-04-20T06:59:21;100220.0;;;14.1;40.5
28456;BME280;15682;56.742;38.866;2023-04-20T07:01:22;100220.0;;;14.1;41.0
28456;BME280;15682;56.742;38.866;2023-04-20T07:03:22;100220.0;;;14.2;41.3
28456;BME280;15682;56.742;38.866;2023-04-20T07:05:23;100210.0;;;14.4;42.5
28456;BME280;15682;56.742;38.866;2023-04-20T07:07:23;100210.0;;;14.2;43.8
28456;BME280;15682;56.742;38.866;2023-04-20T07:09:24;100210.0;;;14.2;43.8
28456;BME280;15682;56.742;38.866;2023-04-20T07:11:24;100210.0;;;14.1;44.5
28456;BME280;15682;56.742;38.866;2023-04-20T07:13:25;100210.0;;;13.9;44.5
28456;BME280;15682;56.742;38.866;2023-04-20T07:15:25;100210.0;;;13.6;47.4
28456;BME280;15682;56.742;38.866;2023-04-20T07:17:26;100210.0;;;13.6;47.5
28456;BME280;15682;56.742;38.866;2023-04-20T07:19:26;100210.0;;;13.7;46.4
28456;BME280;15682;56.742;38.866;2023-04-20T07:21:27;100210.0;;;13.9;45.5
28456;BME280;15682;56.742;38.866;2023-04-20T07:23:27;100210.0;;;13.8;46.1
28456;BME280;15682;56.742;38.866;2023-04-20T07:25:27;100210.0;;;14.0;46.1
28456;BME280;15682;56.742;38.866;2023-04-20T07:27:28;100200.0;;;14.0;46.1
28456;BME280;15682;56.742;38.866;2023-04-20T07:29:28;100190.0;;;14.3;45.3
28456;BME280;15682;56.742;38.866;2023-04-20T07:31:29;100190.0;;;14.5;44.8
28456;BME280;15682;56.742;38.866;2023-04-20T07:33:29;100190.0;;;14.7;44.4
28456;BME280;15682;56.742;38.866;2023-04-20T07:35:29;100190.0;;;14.7;43.8
28456;BME280;15682;56.742;38.866;2023-04-20T07:37:30;100190.0;;;14.9;44.3
28456;BME280;15682;56.742;38.866;2023-04-20T07:39:30;100190.0;;;15.1;42.0
28456;BME280;15682;56.742;38.866;2023-04-20T07:41:30;100190.0;;;15.2;42.5
28456;BME280;15682;56.742;38.866;2023-04-20T07:43:31;100190.0;;;15.5;40.5
28456;BME280;15682;56.742;38.866;2023-04-20T07:45:31;100190.0;;;16.1;38.4
28456;BME280;15682;56.742;38.866;2023-04-20T07:47:32;100190.0;;;16.5;35.7
28456;BME280;15682;56.742;38.866;2023-04-20T07:49:35;100190.0;;;17.0;36.1
28456;BME280;15682;56.742;38.866;2023-04-20T07:51:32;100190.0;;;17.3;36.1
28456;BME280;15682;56.742;38.866;2023-04-20T07:53:32;100190.0;;;17.2;36.8
28456;BME280;15682;56.742;38.866;2023-04-20T07:55:33;100180.0;;;17.4;36.8
28456;BME280;15682;56.742;38.866;2023-04-20T07:57:34;100180.0;;;17.2;37.7
28456;BME280;15682;56.742;38.866;2023-04-20T07:59:33;100180.0;;;16.0;38.6
28456;BME280;15682;56.742;38.866;2023-04-20T08:01:34;100180.0;;;16.2;38.6
28456;BME280;15682;56.742;38.866;2023-04-20T08:03:34;100180.0;;;16.5;37.5
28456;BME280;15682;56.742;38.866;2023-04-20T08:05:36;100180.0;;;16.1;38.1
28456;BME280;15682;56.742;38.866;2023-04-20T08:07:35;100180.0;;;16.2;38.6
28456;BME280;15682;56.742;38.866;2023-04-20T08:09:35;100180.0;;;16.2;37.5
28456;BME280;15682;56.742;38.866;2023-04-20T08:11:35;100180.0;;;15.9;37.5
28456;BME280;15682;56.742;38.866;2023-04-20T08:13:35;100180.0;;;16.1;37.0
28456;BME280;15682;56.742;38.866;2023-04-20T08:15:36;100180.0;;;16.1;37.8
28456;BME280;15682;56.742;38.866;2023-04-20T08:17:36;100180.0;;;16.4;37.2
28456;BME280;15682;56.742;38.866;2023-04-20T08:19:36;100180.0;;;16.6;36.7
28456;BME280;15682;56.742;38.866;2023-04-20T08:21:38;100170.0;;;17.3;36.7
28456;BME280;15682;56.742;38.866;2023-04-20T08:23:37;100170.0;;;17.1;36.8
28456;BME280;15682;56.742;38.866;2023-04-20T08:25:38;100170.0;;;16.6;37.5
28456;BME280;15682;56.742;38.866;2023-04-20T08:27:38;100170.0;;;16.7;37.5
28456;BME280;15682;56.742;38.866;2023-04-20T08:29:38;100170.0;;;16.3;36.5
28456;BME280;15682;56.742;38.866;2023-04-20T08:31:38;100170.0;;;16.0;37.4
28456;BME280;15682;56.742;38.866;2023-04-20T08:33:39;100170.0;;;16.1;38.1
28456;BME280;15682;56.742;38.866;2023-04-20T08:35:39;100170.0;;;15.8;38.1
28456;BME280;15682;56.742;38.866;2023-04-20T08:37:39;100170.0;;;16.0;38.1
28456;BME280;15682;56.742;38.866;2023-04-20T08:39:40;100170.0;;;16.1;38.1
28456;BME280;15682;56.742;38.866;2023-04-20T08:41:40;100170.0;;;16.3;37.5
28456;BME280;15682;56.742;38.866;2023-04-20T08:43:40;100170.0;;;16.5;37.4
28456;BME280;15682;56.742;38.866;2023-04-20T08:45:44;100160.0;;;16.6;36.8
28456;BME280;15682;56.742;38.866;2023-04-20T08:47:41;100160.0;;;17.2;36.2
28456;BME280;15682;56.742;38.866;2023-04-20T08:49:43;100160.0;;;17.2;36.2
28456;BME280;15682;56.742;38.866;2023-04-20T08:51:42;100160.0;;;17.3;36.2
28456;BME280;15682;56.742;38.866;2023-04-20T08:53:42;100160.0;;;17.3;36.5
28456;BME280;15682;56.742;38.866;2023-04-20T08:55:42;100160.0;;;17.3;36.5
28456;BME280;15682;56.742;38.866;2023-04-20T08:57:42;100150.0;;;17.0;36.5
28456;BME280;15682;56.742;38.866;2023-04-20T08:59:43;100150.0;;;16.6;36.5
28456;BME280;15682;56.742;38.866;2023-04-20T09:01:43;100150.0;;;16.3;34.9
28456;BME280;15682;56.742;38.866;2023-04-20T09:03:44;100150.0;;;16.3;35.6
28456;BME280;15682;56.742;38.866;2023-04-20T09:05:44;100150.0;;;16.5;35.4
28456;BME280;15682;56.742;38.866;2023-04-20T09:07:50;100140.0;;;16.7;34.3
28456;BME280;15682;56.742;38.866;2023-04-20T09:09:53;100140.0;;;16.9;33.7
28456;BME280;15682;56.742;38.866;2023-04-20T09:11:45;100140.0;;;17.3;32.5
28456;BME280;15682;56.742;38.866;2023-04-20T09:13:56;100140.0;;;16.7;33.2
28456;BME280;15682;56.742;38.866;2023-04-20T09:15:45;100140.0;;;17.1;33.2
28456;BME280;15682;56.742;38.866;2023-04-20T09:17:45;100140.0;;;17.1;32.1
28456;BME280;15682;56.742;38.866;2023-04-20T09:19:52;100140.0;;;16.6;32.1
28456;BME280;15682;56.742;38.866;2023-04-20T09:21:48;100140.0;;;17.3;31.2
28456;BME280;15682;56.742;38.866;2023-04-20T09:23:55;100140.0;;;17.1;31.0
28456;BME280;15682;56.742;38.866;2023-04-20T09:25:50;100140.0;;;16.7;31.0
28456;BME280;15682;56.742;38.866;2023-04-20T09:27:55;100140.0;;;16.7;31.0
28456;BME280;15682;56.742;38.866;2023-04-20T09:29:56;100140.0;;;17.1;31.0
28456;BME280;15682;56.742;38.866;2023-04-20T09:31:48;100130.0;;;17.3;30.6
28456;BME280;15682;56.742;38.866;2023-04-20T09:33:57;100120.0;;;17.4;31.3
28456;BME280;15682;56.742;38.866;2023-04-20T09:35:49;100120.0;;;17.3;31.3
28456;BME280;15682;56.742;38.866;2023-04-20T09:37:49;100120.0;;;16.8;31.4
28456;BME280;15682;56.742;38.866;2023-04-20T09:39:49;100120.0;;;16.5;32.6
28456;BME280;15682;56.742;38.866;2023-04-20T09:41:51;100120.0;;;16.8;32.6
28456;BME280;15682;56.742;38.866;2023-04-20T09:43:50;100130.0;;;16.3;31.3
28456;BME280;15682;56.742;38.866;2023-04-20T09:45:50;100130.0;;;15.6;31.3
28456;BME280;15682;56.742;38.866;2023-04-20T09:47:51;100130.0;;;15.8;32.2
28456;BME280;15682;56.742;38.866;2023-04-20T09:49:51;100130.0;;;15.8;31.7
28456;BME280;15682;56.742;38.866;2023-04-20T09:51:51;100130.0;;;15.8;32.3
28456;BME280;15682;56.742;38.866;2023-04-20T09:53:51;100130.0;;;15.7;32.7
28456;BME280;15682;56.742;38.866;2023-04-20T09:55:51;100130.0;;;16.0;32.7
28456;BME280;15682;56.742;38.866;2023-04-20T09:57:53;100130.0;;;16.0;31.4
28456;BME280;15682;56.742;38.866;2023-04-20T09:59:53;100120.0;;;16.2;31.3
28456;BME280;15682;56.742;38.866;2023-04-20T10:01:52;100120.0;;;16.2;30.5
28456;BME280;15682;56.742;38.866;2023-04-20T10:03:53;100120.0;;;16.2;28.9
28456;BME280;15682;56.742;38.866;2023-04-20T10:05:53;100120.0;;;16.0;28.5
28456;BME280;15682;56.742;38.866;2023-04-20T10:07:58;100120.0;;;15.8;28.4
28456;BME280;15682;56.742;38.866;2023-04-20T10:10:09;100120.0;;;15.6;28.4
28456;BME280;15682;56.742;38.866;2023-04-20T10:12:04;100120.0;;;15.9;27.7
28456;BME280;15682;56.742;38.866;2023-04-20T10:13:55;100110.0;;;16.0;27.9
28456;BME280;15682;56.742;38.866;2023-04-20T10:15:54;100110.0;;;16.2;27.6
28456;BME280;15682;56.742;38.866;2023-04-20T10:17:55;100110.0;;;16.2;27.6
28456;BME280;15682;56.742;38.866;2023-04-20T10:19:55;100110.0;;;16.3;27.0
28456;BME280;15682;56.742;38.866;2023-04-20T10:21:55;100110.0;;;16.2;27.0
28456;BME280;15682;56.742;38.866;2023-04-20T10:23:56;100110.0;;;16.0;27.2
28456;BME280;15682;56.742;38.866;2023-04-20T10:25:57;100100.0;;;16.1;27.2
28456;BME280;15682;56.742;38.866;2023-04-20T10:27:58;100100.0;;;16.3;27.2
28456;BME280;15682;56.742;38.866;2023-04-20T10:30:07;100100.0;;;16.3;28.0
28456;BME280;15682;56.742;38.866;2023-04-20T10:31:57;100100.0;;;16.3;26.4
28456;BME280;15682;56.742;38.866;2023-04-20T10:33:57;100100.0;;;16.3;26.2
28456;BME280;15682;56.742;38.866;2023-04-20T10:35:57;100090.0;;;16.5;25.9
28456;BME280;15682;56.742;38.866;2023-04-20T10:37:57;100100.0;;;16.3;25.1
28456;BME280;15682;56.742;38.866;2023-04-20T10:39:58;100100.0;;;16.3;25.1
28456;BME280;15682;56.742;38.866;2023-04-20T10:41:58;100090.0;;;16.3;25.1
28456;BME280;15682;56.742;38.866;2023-04-20T10:44:06;100090.0;;;16.3;25.4
28456;BME280;15682;56.742;38.866;2023-04-20T10:45:59;100090.0;;;16.3;25.4
28456;BME280;15682;56.742;38.866;2023-04-20T10:48:06;100090.0;;;16.4;25.4
28456;BME280;15682;56.742;38.866;2023-04-20T10:50:08;100090.0;;;16.3;25.4